createdAt,value
2022-12-29T00:01:54.338Z,1.60
2022-12-29T00:04:03.057Z,1.33
2022-12-29T00:06:11.935Z,1.30
2022-12-29T00:08:21.077Z,1.63
2022-12-29T00:10:29.895Z,1.63
2022-12-29T00:12:55.853Z,1.00
2022-12-29T00:15:24.289Z,1.40
2022-12-29T00:17:33.561Z,1.40
2022-12-29T00:19:59.918Z,1.33
2022-12-29T00:22:26.101Z,1.40
2022-12-29T00:24:51.805Z,1.53
2022-12-29T00:27:29.301Z,1.60
2022-12-29T00:29:55.309Z,1.50
2022-12-29T00:32:24.135Z,1.93
2022-12-29T00:34:49.957Z,2.17
2022-12-29T00:36:59.706Z,2.50
2022-12-29T00:39:30.389Z,2.37
2022-12-29T00:41:56.457Z,2.23
2022-12-29T00:44:08.052Z,2.50
2022-12-29T00:46:19.969Z,2.83
2022-12-29T00:48:47.559Z,3.17
2022-12-29T00:50:58.595Z,2.80
2022-12-29T00:53:33.902Z,2.93
2022-12-29T00:55:43.171Z,2.57
2022-12-29T00:57:52.038Z,2.80
2022-12-29T01:00:00.948Z,2.43
2022-12-29T01:02:10.512Z,3.47
2022-12-29T01:04:22.587Z,2.47
2022-12-29T01:06:31.443Z,3.33
2022-12-29T01:08:41.154Z,2.67
2022-12-29T01:10:58.632Z,2.23
2022-12-29T01:13:07.472Z,2.30
2022-12-29T01:15:18.316Z,1.80
2022-12-29T01:17:26.765Z,2.07
2022-12-29T01:19:37.496Z,2.50
2022-12-29T01:21:45.852Z,2.07
2022-12-29T01:23:54.380Z,2.40
2022-12-29T01:26:12.134Z,2.30
2022-12-29T01:28:25.755Z,1.70
2022-12-29T01:30:35.457Z,2.20
2022-12-29T01:32:44.471Z,2.40
2022-12-29T01:34:54.321Z,2.20
2022-12-29T01:37:03.117Z,2.30
2022-12-29T01:39:11.853Z,2.00
2022-12-29T01:41:20.813Z,2.20
2022-12-29T01:43:42.649Z,2.30
2022-12-29T01:45:54.240Z,2.43
2022-12-29T01:48:05.431Z,2.57
2022-12-29T01:50:18.618Z,3.00
2022-12-29T01:52:29.933Z,2.57
2022-12-29T01:54:41.673Z,2.80
2022-12-29T01:56:51.039Z,2.40
2022-12-29T01:59:04.514Z,2.57
2022-12-29T02:01:13.426Z,2.67
2022-12-29T02:03:24.157Z,2.60
2022-12-29T02:05:37.689Z,2.40
2022-12-29T02:07:46.551Z,2.40
2022-12-29T02:09:56.496Z,2.40
2022-12-29T02:12:05.853Z,2.40
2022-12-29T02:14:15.136Z,2.27
2022-12-29T02:16:35.729Z,2.10
2022-12-29T02:18:49.210Z,2.57
2022-12-29T02:21:31.149Z,2.60
2022-12-29T02:23:50.384Z,2.20
2022-12-29T02:26:17.369Z,2.50
2022-12-29T02:28:46.778Z,1.93
2022-12-29T02:31:01.742Z,2.27
2022-12-29T02:33:16.641Z,2.60
2022-12-29T02:35:32.397Z,1.70
2022-12-29T02:37:45.332Z,2.20
2022-12-29T02:39:56.152Z,1.90
2022-12-29T02:42:10.841Z,1.80
2022-12-29T02:44:22.502Z,1.70
2022-12-29T02:46:38.099Z,2.30
2022-12-29T02:48:50.313Z,1.90
2022-12-29T02:51:02.489Z,1.90
2022-12-29T02:53:13.529Z,2.10
2022-12-29T02:55:22.185Z,1.90
2022-12-29T02:57:32.957Z,2.00
2022-12-29T02:59:43.122Z,1.97
2022-12-29T03:02:22.265Z,1.80
2022-12-29T03:04:35.343Z,1.80
2022-12-29T03:06:53.330Z,2.10
2022-12-29T03:09:05.705Z,2.27
2022-12-29T03:11:48.442Z,2.33
2022-12-29T03:14:17.631Z,2.07
2022-12-29T03:16:30.140Z,2.00
2022-12-29T03:18:59.295Z,2.37
2022-12-29T03:21:11.180Z,1.77
2022-12-29T03:23:21.370Z,2.40
2022-12-29T03:25:32.839Z,2.20
2022-12-29T03:27:44.773Z,2.20
2022-12-29T03:29:55.961Z,2.30
2022-12-29T03:32:06.125Z,2.10
2022-12-29T03:34:17.380Z,2.17
2022-12-29T03:36:30.240Z,2.10
2022-12-29T03:38:41.766Z,2.40
2022-12-29T03:40:52.587Z,2.20
2022-12-29T03:43:01.769Z,2.30
2022-12-29T03:45:11.508Z,2.33
2022-12-29T03:47:20.727Z,2.10
2022-12-29T03:49:30.926Z,2.93
2022-12-29T03:51:40.095Z,2.73
2022-12-29T03:53:49.153Z,2.23
2022-12-29T03:55:58.158Z,2.57
2022-12-29T03:58:07.122Z,2.93
2022-12-29T04:00:17.211Z,2.50
2022-12-29T04:02:27.130Z,2.40
2022-12-29T04:04:37.404Z,2.63
2022-12-29T04:06:46.529Z,2.70
2022-12-29T04:08:55.551Z,2.97
2022-12-29T04:11:06.048Z,2.73
2022-12-29T04:13:15.057Z,2.50
2022-12-29T04:15:25.519Z,2.77
2022-12-29T04:17:34.910Z,2.97
2022-12-29T04:19:45.615Z,3.53
2022-12-29T04:21:54.983Z,3.10
2022-12-29T04:24:04.136Z,3.37
2022-12-29T04:26:13.163Z,3.20
2022-12-29T04:28:21.883Z,2.93
2022-12-29T04:30:31.258Z,3.17
2022-12-29T04:32:40.423Z,3.07
2022-12-29T04:34:50.681Z,2.80
2022-12-29T04:36:59.903Z,2.93
2022-12-29T04:39:09.553Z,2.90
2022-12-29T04:41:18.259Z,2.57
2022-12-29T04:43:26.748Z,2.57
2022-12-29T04:45:35.829Z,2.67
2022-12-29T04:47:44.853Z,2.40
2022-12-29T04:49:55.179Z,2.57
2022-12-29T04:52:03.813Z,2.30
2022-12-29T04:54:12.788Z,3.20
2022-12-29T04:56:21.709Z,3.23
2022-12-29T04:58:31.146Z,2.50
2022-12-29T05:00:40.042Z,2.10
2022-12-29T05:02:49.261Z,2.83
2022-12-29T05:04:59.924Z,2.73
2022-12-29T05:07:08.688Z,3.20
2022-12-29T05:09:17.911Z,2.87
2022-12-29T05:11:27.471Z,2.63
2022-12-29T05:13:36.289Z,2.63
2022-12-29T05:15:49.145Z,3.70
2022-12-29T05:17:58.220Z,2.50
2022-12-29T05:20:10.263Z,3.10
2022-12-29T05:22:19.381Z,3.23
2022-12-29T05:24:28.297Z,3.80
2022-12-29T05:26:36.970Z,3.17
2022-12-29T05:28:46.241Z,3.63
2022-12-29T05:30:55.421Z,3.27
2022-12-29T05:33:04.323Z,3.47
2022-12-29T05:35:14.976Z,2.80
2022-12-29T05:37:23.567Z,3.13
2022-12-29T05:39:32.589Z,2.67
2022-12-29T05:41:41.843Z,3.20
2022-12-29T05:43:50.925Z,3.10
2022-12-29T05:46:00.342Z,2.90
2022-12-29T05:48:09.135Z,2.90
2022-12-29T05:50:20.304Z,3.17
2022-12-29T05:52:29.363Z,3.53
2022-12-29T05:54:38.395Z,3.10
2022-12-29T05:56:47.494Z,3.20
2022-12-29T05:58:56.371Z,3.43
2022-12-29T06:01:05.912Z,3.37
2022-12-29T06:03:15.477Z,3.00
2022-12-29T06:05:26.859Z,3.40
2022-12-29T06:07:35.605Z,3.00
2022-12-29T06:09:44.706Z,3.67
2022-12-29T06:11:53.633Z,3.50
2022-12-29T06:14:02.506Z,2.77
2022-12-29T06:16:11.410Z,3.20
2022-12-29T06:18:20.711Z,2.30
2022-12-29T06:20:31.387Z,2.80
2022-12-29T06:22:40.246Z,2.83
2022-12-29T06:24:49.590Z,2.93
2022-12-29T06:26:58.993Z,2.70
2022-12-29T06:29:08.134Z,2.50
2022-12-29T06:31:16.763Z,2.57
2022-12-29T06:33:26.215Z,2.40
2022-12-29T06:35:36.652Z,2.20
2022-12-29T06:37:45.511Z,2.73
2022-12-29T06:39:54.705Z,2.50
2022-12-29T06:42:03.994Z,2.50
2022-12-29T06:44:13.355Z,1.80
2022-12-29T06:46:22.537Z,2.20
2022-12-29T06:48:31.493Z,1.50
2022-12-29T06:50:41.821Z,2.77
2022-12-29T06:52:52.209Z,2.90
2022-12-29T06:55:01.394Z,2.97
2022-12-29T06:57:10.300Z,2.67
2022-12-29T06:59:19.125Z,2.90
2022-12-29T07:01:28.250Z,2.30
2022-12-29T07:03:37.244Z,2.67
2022-12-29T07:05:48.236Z,3.40
2022-12-29T07:07:57.554Z,3.03
2022-12-29T07:10:06.858Z,3.10
2022-12-29T07:12:16.091Z,2.90
2022-12-29T07:14:25.608Z,3.20
2022-12-29T07:16:35.879Z,3.77
2022-12-29T07:18:45.463Z,3.53
2022-12-29T07:20:55.971Z,3.20
2022-12-29T07:23:05.847Z,3.37
2022-12-29T07:25:14.521Z,3.70
2022-12-29T07:27:24.199Z,3.63
2022-12-29T07:29:33.133Z,3.53
2022-12-29T07:31:42.676Z,3.60
2022-12-29T07:33:52.058Z,2.70
2022-12-29T07:36:03.029Z,4.10
2022-12-29T07:38:12.134Z,4.13
2022-12-29T07:40:21.239Z,4.17
2022-12-29T07:42:30.412Z,3.57
2022-12-29T07:44:39.117Z,3.40
2022-12-29T07:46:53.802Z,3.90
2022-12-29T07:49:03.856Z,4.07
2022-12-29T07:51:14.315Z,3.80
2022-12-29T07:53:23.418Z,4.57
2022-12-29T07:55:32.948Z,4.10
2022-12-29T07:57:41.957Z,2.93
2022-12-29T07:59:51.171Z,4.03
2022-12-29T08:02:00.819Z,3.90
2022-12-29T08:04:10.180Z,5.03
2022-12-29T08:06:21.162Z,4.60
2022-12-29T08:08:30.278Z,5.37
2022-12-29T08:10:38.841Z,5.90
2022-12-29T08:12:47.628Z,5.90
2022-12-29T08:14:56.650Z,5.77
2022-12-29T08:17:05.724Z,8.40
2022-12-29T08:19:14.956Z,5.60
2022-12-29T08:21:25.088Z,6.40
2022-12-29T08:23:34.031Z,5.23
2022-12-29T08:25:43.222Z,5.67
2022-12-29T08:27:52.325Z,6.10
2022-12-29T08:30:02.594Z,6.17
2022-12-29T08:32:11.409Z,6.43
2022-12-29T08:34:20.636Z,6.47
2022-12-29T08:36:31.450Z,5.83
2022-12-29T08:38:40.416Z,6.57
2022-12-29T08:40:49.416Z,4.97
2022-12-29T08:42:58.111Z,5.50
2022-12-29T08:45:07.400Z,6.50
2022-12-29T08:47:16.526Z,6.60
2022-12-29T08:49:25.489Z,7.13
2022-12-29T08:51:35.744Z,6.13
2022-12-29T08:53:44.775Z,6.47
2022-12-29T08:56:04.035Z,4.23
2022-12-29T08:58:15.686Z,5.73
2022-12-29T09:00:24.543Z,5.20
2022-12-29T09:02:33.703Z,6.57
2022-12-29T09:04:42.962Z,6.57
2022-12-29T09:06:53.832Z,6.10
2022-12-29T09:09:02.469Z,5.23
2022-12-29T09:11:11.729Z,5.73
2022-12-29T09:13:20.643Z,4.87
2022-12-29T09:15:29.540Z,5.90
2022-12-29T09:17:47.721Z,5.30
2022-12-29T09:19:56.834Z,4.80
2022-12-29T09:22:07.194Z,6.00
2022-12-29T09:24:15.865Z,5.23
2022-12-29T09:26:24.623Z,4.77
2022-12-29T09:28:34.068Z,4.53
2022-12-29T09:30:43.030Z,3.80
2022-12-29T09:32:55.264Z,3.53
2022-12-29T09:35:04.700Z,3.83
2022-12-29T09:37:15.548Z,2.93
2022-12-29T09:39:24.985Z,2.67
2022-12-29T09:41:39.140Z,2.80
2022-12-29T09:43:54.187Z,3.17
2022-12-29T09:46:09.109Z,2.20
2022-12-29T09:48:21.517Z,2.30
2022-12-29T09:50:33.523Z,2.30
2022-12-29T09:52:47.813Z,2.07
2022-12-29T09:55:03.137Z,1.60
2022-12-29T09:57:18.216Z,1.30
2022-12-29T09:59:30.735Z,1.57
2022-12-29T10:01:45.193Z,1.60
2022-12-29T10:03:55.746Z,1.40
2022-12-29T10:06:09.371Z,1.70
2022-12-29T10:08:25.906Z,1.50
2022-12-29T10:10:38.763Z,1.43
2022-12-29T10:12:55.042Z,1.50
2022-12-29T10:15:08.109Z,1.50
2022-12-29T10:17:26.214Z,1.80
2022-12-29T10:19:51.657Z,1.90
2022-12-29T10:22:04.248Z,1.93
2022-12-29T10:24:15.742Z,1.93
2022-12-29T10:26:26.600Z,1.83
2022-12-29T10:28:38.635Z,2.33
2022-12-29T10:30:48.855Z,2.13
2022-12-29T10:33:00.119Z,2.87
2022-12-29T10:35:15.116Z,2.43
2022-12-29T10:37:33.606Z,3.07
2022-12-29T10:39:49.028Z,3.23
2022-12-29T10:42:01.348Z,2.70
2022-12-29T10:44:14.088Z,2.80
2022-12-29T10:46:25.230Z,2.60
2022-12-29T10:48:34.711Z,2.17
2022-12-29T10:50:44.417Z,2.73
2022-12-29T10:52:53.742Z,2.40
2022-12-29T10:55:07.214Z,2.40
2022-12-29T10:57:22.805Z,2.30
2022-12-29T10:59:32.651Z,2.40
2022-12-29T11:01:46.469Z,2.30
2022-12-29T11:04:02.094Z,2.60
2022-12-29T11:06:13.596Z,1.90
2022-12-29T11:08:23.563Z,1.87
2022-12-29T11:10:42.170Z,1.70
2022-12-29T11:12:59.339Z,1.63
2022-12-29T11:15:16.096Z,2.00
2022-12-29T11:17:25.010Z,2.10
2022-12-29T11:19:40.773Z,1.73
2022-12-29T11:21:49.801Z,2.13
2022-12-29T11:23:59.975Z,1.97
2022-12-29T11:26:11.936Z,1.90
2022-12-29T11:28:21.108Z,3.17
2022-12-29T11:30:31.428Z,2.17
2022-12-29T11:32:53.454Z,2.80
2022-12-29T11:35:02.991Z,2.70
2022-12-29T11:37:14.720Z,2.30
2022-12-29T11:39:36.188Z,2.17
2022-12-29T11:41:54.544Z,1.80
2022-12-29T11:44:04.957Z,2.53
2022-12-29T11:46:18.032Z,1.73
2022-12-29T11:48:28.536Z,1.70
2022-12-29T11:50:39.151Z,1.90
2022-12-29T11:52:48.676Z,1.90
2022-12-29T11:54:58.598Z,2.27
2022-12-29T11:57:16.551Z,2.07
2022-12-29T11:59:43.519Z,1.83
2022-12-29T12:01:53.058Z,2.60
2022-12-29T12:04:04.645Z,2.23
2022-12-29T12:06:16.482Z,1.70
2022-12-29T12:08:35.375Z,1.67
2022-12-29T12:10:46.762Z,2.23
2022-12-29T12:13:00.287Z,1.90
2022-12-29T12:15:13.482Z,1.97
2022-12-29T12:17:25.457Z,2.77
2022-12-29T12:19:36.496Z,1.70
2022-12-29T12:21:47.119Z,1.77
2022-12-29T12:24:11.224Z,1.73
2022-12-29T12:26:22.267Z,2.10
2022-12-29T12:28:37.922Z,1.97
2022-12-29T12:30:48.482Z,1.87
2022-12-29T12:32:59.058Z,1.80
2022-12-29T12:35:08.252Z,2.23
2022-12-29T12:37:30.732Z,2.10
2022-12-29T12:39:43.412Z,1.73
2022-12-29T12:41:57.055Z,1.90
2022-12-29T12:44:10.815Z,1.53
2022-12-29T12:46:26.645Z,1.70
2022-12-29T12:48:47.209Z,1.80
2022-12-29T12:50:59.216Z,1.57
2022-12-29T12:53:19.338Z,1.70
2022-12-29T12:55:37.674Z,1.53
2022-12-29T12:57:54.251Z,1.37
2022-12-29T13:00:07.091Z,1.43
2022-12-29T13:02:23.675Z,1.57
2022-12-29T13:04:50.681Z,1.70
2022-12-29T13:07:04.142Z,1.67
2022-12-29T13:09:19.801Z,2.23
2022-12-29T13:11:32.491Z,1.33
2022-12-29T13:13:59.811Z,1.77
2022-12-29T13:16:15.847Z,1.73
2022-12-29T13:18:28.934Z,2.10
2022-12-29T13:20:43.762Z,1.90
2022-12-29T13:22:57.241Z,1.63
2022-12-29T13:25:18.404Z,1.90
2022-12-29T13:27:37.354Z,2.10
2022-12-29T13:29:50.882Z,2.67
2022-12-29T13:32:05.938Z,2.20
2022-12-29T13:34:18.878Z,2.30
2022-12-29T13:36:30.324Z,2.50
2022-12-29T13:38:41.060Z,2.40
2022-12-29T13:40:53.110Z,2.50
2022-12-29T13:43:03.006Z,2.50
2022-12-29T13:45:14.856Z,2.40
2022-12-29T13:47:28.838Z,2.53
2022-12-29T13:49:38.817Z,2.83
2022-12-29T13:51:51.220Z,2.70
2022-12-29T13:54:15.228Z,2.63
2022-12-29T13:56:27.787Z,2.60
2022-12-29T13:58:38.644Z,2.50
2022-12-29T14:00:52.076Z,2.40
2022-12-29T14:03:14.602Z,2.40
2022-12-29T14:05:33.350Z,2.50
2022-12-29T14:07:43.372Z,2.57
2022-12-29T14:09:53.724Z,2.40
2022-12-29T14:12:02.842Z,2.30
2022-12-29T14:14:16.054Z,2.53
2022-12-29T14:16:29.543Z,2.00
2022-12-29T14:18:45.819Z,2.23
2022-12-29T14:20:57.260Z,2.03
2022-12-29T14:23:19.250Z,2.30
2022-12-29T14:25:47.396Z,2.20
2022-12-29T14:27:57.218Z,1.90
2022-12-29T14:30:06.678Z,1.80
2022-12-29T14:32:33.760Z,2.00
2022-12-29T14:34:51.899Z,2.03
2022-12-29T14:37:02.257Z,1.93
2022-12-29T14:39:35.370Z,2.43
2022-12-29T14:41:44.973Z,2.00
2022-12-29T14:44:12.377Z,3.30
2022-12-29T14:46:21.598Z,2.90
2022-12-29T14:48:35.868Z,3.57
2022-12-29T14:50:47.167Z,2.73
2022-12-29T14:53:03.112Z,2.50
2022-12-29T14:55:28.195Z,2.67
2022-12-29T14:57:39.686Z,2.30
2022-12-29T14:59:49.888Z,2.57
2022-12-29T15:01:59.898Z,2.87
2022-12-29T15:04:17.499Z,2.57
2022-12-29T15:06:29.142Z,3.23
2022-12-29T15:08:41.079Z,3.50
2022-12-29T15:10:52.091Z,3.90
2022-12-29T15:13:05.748Z,4.00
2022-12-29T15:15:21.586Z,4.57
2022-12-29T15:17:31.637Z,4.27
2022-12-29T15:19:41.147Z,4.53
2022-12-29T15:21:51.726Z,4.40
2022-12-29T15:24:00.882Z,4.13
2022-12-29T15:26:12.135Z,4.80
2022-12-29T15:28:23.914Z,4.37
2022-12-29T15:30:32.940Z,4.63
2022-12-29T15:32:42.902Z,4.43
2022-12-29T15:34:52.995Z,5.10
2022-12-29T15:37:08.985Z,4.97
2022-12-29T15:39:22.059Z,5.40
2022-12-29T15:41:55.443Z,5.63
2022-12-29T15:44:09.607Z,5.67
2022-12-29T15:46:19.114Z,5.37
2022-12-29T15:48:28.672Z,6.37
2022-12-29T15:50:38.977Z,5.50
2022-12-29T15:52:49.018Z,6.47
2022-12-29T15:54:58.629Z,7.10
2022-12-29T15:57:14.200Z,5.83
2022-12-29T15:59:27.457Z,5.60
2022-12-29T16:01:38.054Z,6.57
2022-12-29T16:03:48.322Z,6.07
2022-12-29T16:05:57.973Z,4.87
2022-12-29T16:08:24.563Z,4.80
2022-12-29T16:10:35.838Z,5.37
2022-12-29T16:12:44.961Z,4.67
2022-12-29T16:14:56.348Z,4.87
2022-12-29T16:17:06.602Z,4.30
2022-12-29T16:19:17.404Z,5.53
2022-12-29T16:21:28.078Z,4.53
2022-12-29T16:23:39.807Z,3.90
2022-12-29T16:25:49.536Z,4.90
2022-12-29T16:27:58.930Z,5.13
2022-12-29T16:30:09.669Z,5.10
2022-12-29T16:32:29.526Z,4.03
2022-12-29T16:34:47.369Z,4.17
2022-12-29T16:36:57.529Z,4.13
2022-12-29T16:39:23.257Z,4.37
2022-12-29T16:41:34.491Z,5.20
2022-12-29T16:43:44.294Z,4.80
2022-12-29T16:46:08.359Z,4.40
2022-12-29T16:48:22.401Z,4.53
2022-12-29T16:50:32.021Z,4.17
2022-12-29T16:52:41.463Z,5.40
2022-12-29T16:54:53.125Z,5.37
2022-12-29T16:57:04.426Z,5.27
2022-12-29T16:59:27.544Z,5.00
2022-12-29T17:01:38.523Z,6.47
2022-12-29T17:03:50.247Z,5.30
2022-12-29T17:05:58.966Z,5.80
2022-12-29T17:08:17.355Z,4.73
2022-12-29T17:10:46.963Z,5.00
2022-12-29T17:12:57.151Z,6.30
2022-12-29T17:15:11.216Z,5.47
2022-12-29T17:17:21.695Z,6.10
2022-12-29T17:19:32.782Z,5.80
2022-12-29T17:21:42.614Z,5.53
2022-12-29T17:23:51.563Z,5.70
2022-12-29T17:26:00.703Z,5.50
2022-12-29T17:28:16.087Z,5.70
2022-12-29T17:30:31.228Z,6.17
2022-12-29T17:32:42.617Z,6.07
2022-12-29T17:34:52.050Z,6.20
2022-12-29T17:37:00.715Z,5.67
2022-12-29T17:39:09.859Z,6.30
2022-12-29T17:41:18.621Z,6.70
2022-12-29T17:43:36.456Z,7.00
2022-12-29T17:45:47.402Z,6.17
2022-12-29T17:47:57.017Z,6.87
2022-12-29T17:50:06.821Z,6.63
2022-12-29T17:52:16.064Z,6.40
2022-12-29T17:54:26.148Z,6.53
2022-12-29T17:56:35.176Z,6.47
2022-12-29T17:58:46.191Z,6.00
2022-12-29T18:00:56.191Z,9.07
2022-12-29T18:03:05.496Z,5.53
2022-12-29T18:05:19.548Z,6.40
2022-12-29T18:07:35.349Z,8.17
2022-12-29T18:09:44.639Z,6.00
2022-12-29T18:11:53.906Z,6.53
2022-12-29T18:14:04.708Z,11.77
2022-12-29T18:16:14.740Z,6.33
2022-12-29T18:18:24.997Z,7.97
2022-12-29T18:20:34.107Z,7.47
2022-12-29T18:22:42.865Z,7.93
2022-12-29T18:24:51.952Z,9.57
2022-12-29T18:27:01.399Z,7.60
2022-12-29T18:29:11.900Z,6.23
2022-12-29T18:31:21.795Z,10.47
2022-12-29T18:33:31.513Z,7.63
2022-12-29T18:35:41.598Z,6.63
2022-12-29T18:37:50.647Z,7.20
2022-12-29T18:39:59.598Z,6.07
2022-12-29T18:42:08.713Z,4.83
2022-12-29T18:44:20.889Z,5.93
2022-12-29T18:46:30.313Z,5.27
2022-12-29T18:48:39.783Z,5.03
2022-12-29T18:50:49.639Z,5.80
2022-12-29T18:53:03.811Z,6.57
2022-12-29T18:55:15.642Z,5.10
2022-12-29T18:57:24.775Z,6.47
2022-12-29T18:59:34.981Z,6.10
2022-12-29T19:01:44.284Z,6.70
2022-12-29T19:03:53.427Z,10.87
2022-12-29T19:06:02.667Z,5.20
2022-12-29T19:08:12.729Z,6.03
2022-12-29T19:10:22.332Z,7.70
2022-12-29T19:12:31.246Z,5.67
2022-12-29T19:14:41.629Z,5.97
2022-12-29T19:16:50.483Z,5.27
2022-12-29T19:19:09.390Z,5.80
2022-12-29T19:21:20.242Z,4.93
2022-12-29T19:23:30.880Z,4.87
2022-12-29T19:25:40.242Z,5.67
2022-12-29T19:27:49.950Z,5.23
2022-12-29T19:30:00.661Z,5.73
2022-12-29T19:32:10.190Z,5.17
2022-12-29T19:34:19.853Z,5.17
2022-12-29T19:36:28.624Z,5.30
2022-12-29T19:38:37.382Z,5.60
2022-12-29T19:40:47.199Z,4.50
2022-12-29T19:42:56.570Z,4.60
2022-12-29T19:45:08.043Z,4.53
2022-12-29T19:47:20.680Z,4.63
2022-12-29T19:49:29.998Z,4.27
2022-12-29T19:51:39.078Z,4.60
2022-12-29T19:53:48.603Z,5.00
2022-12-29T19:55:57.679Z,4.27
2022-12-29T19:58:06.573Z,4.47
2022-12-29T20:00:17.885Z,4.83
2022-12-29T20:02:28.318Z,4.70
2022-12-29T20:04:37.561Z,5.07
2022-12-29T20:06:46.368Z,4.80
2022-12-29T20:08:56.102Z,4.80
2022-12-29T20:11:05.626Z,5.50
2022-12-29T20:13:14.565Z,5.10
2022-12-29T20:15:25.193Z,6.03
2022-12-29T20:18:10.831Z,5.87
2022-12-29T20:20:04.092Z,5.60
2022-12-29T20:22:13.083Z,4.73
2022-12-29T20:24:22.181Z,4.90
2022-12-29T20:26:31.975Z,5.00
2022-12-29T20:28:40.864Z,5.80
2022-12-29T20:30:58.708Z,4.50
2022-12-29T20:33:08.691Z,7.97
2022-12-29T20:35:17.663Z,5.20
2022-12-29T20:37:26.484Z,5.53
2022-12-29T20:39:35.444Z,5.23
2022-12-29T20:41:44.817Z,4.90
2022-12-29T20:43:54.990Z,6.00
2022-12-29T20:46:06.211Z,4.80
2022-12-29T20:48:15.233Z,4.33
2022-12-29T20:50:24.297Z,4.30
2022-12-29T20:52:33.634Z,4.43
2022-12-29T20:54:42.715Z,3.67
2022-12-29T20:56:52.452Z,4.63
2022-12-29T20:59:26.944Z,5.20
2022-12-29T21:01:32.766Z,3.57
2022-12-29T21:03:42.527Z,3.70
2022-12-29T21:05:51.364Z,3.77
2022-12-29T21:08:01.400Z,5.97
2022-12-29T21:10:10.720Z,3.37
2022-12-29T21:12:19.948Z,3.80
2022-12-29T21:14:28.800Z,3.83
2022-12-29T21:16:40.016Z,3.77
2022-12-29T21:18:48.755Z,3.43
2022-12-29T21:20:58.588Z,3.27
2022-12-29T21:23:07.497Z,3.30
2022-12-29T21:25:16.983Z,3.30
2022-12-29T21:27:26.001Z,3.33
2022-12-29T21:29:34.801Z,3.47
2022-12-29T21:31:46.116Z,3.23
2022-12-29T21:33:55.527Z,3.30
2022-12-29T21:36:06.500Z,3.57
2022-12-29T21:38:15.844Z,3.13
2022-12-29T21:40:25.451Z,3.70
2022-12-29T21:42:34.449Z,3.00
2022-12-29T21:45:00.846Z,3.07
2022-12-29T21:47:11.153Z,3.03
2022-12-29T21:49:20.499Z,2.73
2022-12-29T21:51:46.521Z,3.23
2022-12-29T21:54:17.986Z,3.17
2022-12-29T21:56:27.046Z,2.80
2022-12-29T21:58:53.523Z,3.37
2022-12-29T22:01:19.948Z,3.80
2022-12-29T22:03:47.557Z,2.90
2022-12-29T22:06:14.466Z,3.27
2022-12-29T22:08:40.962Z,3.17
2022-12-29T22:11:07.610Z,3.57
2022-12-29T22:13:16.758Z,3.00
2022-12-29T22:15:25.981Z,2.90
2022-12-29T22:17:37.653Z,3.03
2022-12-29T22:19:48.518Z,3.00
2022-12-29T22:21:57.840Z,2.83
2022-12-29T22:24:08.557Z,2.90
2022-12-29T22:26:17.324Z,2.50
2022-12-29T22:28:26.476Z,2.43
2022-12-29T22:30:35.755Z,3.17
2022-12-29T22:32:44.880Z,2.93
2022-12-29T22:34:56.637Z,2.80
2022-12-29T22:37:05.820Z,2.73
2022-12-29T22:39:14.657Z,2.30
2022-12-29T22:41:23.929Z,2.73
2022-12-29T22:43:32.783Z,2.40
2022-12-29T22:45:42.251Z,2.20
2022-12-29T22:47:51.151Z,2.50
2022-12-29T22:50:02.312Z,2.07
2022-12-29T22:52:12.857Z,2.40
2022-12-29T22:54:23.941Z,2.23
2022-12-29T22:56:32.619Z,2.43
2022-12-29T22:58:41.952Z,2.33
2022-12-29T23:00:50.884Z,2.50
2022-12-29T23:02:59.738Z,2.20
2022-12-29T23:05:11.559Z,2.30
2022-12-29T23:07:20.603Z,2.23
2022-12-29T23:09:29.958Z,2.20
2022-12-29T23:11:38.880Z,2.00
2022-12-29T23:13:48.190Z,1.97
2022-12-29T23:15:57.176Z,2.17
2022-12-29T23:18:06.593Z,2.23
2022-12-29T23:20:17.369Z,1.80
2022-12-29T23:22:25.968Z,1.90
2022-12-29T23:24:35.035Z,2.10
2022-12-29T23:26:45.122Z,2.20
2022-12-29T23:28:59.728Z,1.90
2022-12-29T23:31:09.212Z,1.90
2022-12-29T23:33:18.795Z,1.67
2022-12-29T23:35:30.026Z,1.70
2022-12-29T23:37:39.510Z,1.70
2022-12-29T23:39:48.536Z,1.80
2022-12-29T23:41:57.448Z,2.10
2022-12-29T23:44:06.179Z,1.63
2022-12-29T23:46:16.055Z,1.57
2022-12-29T23:48:25.333Z,1.70
2022-12-29T23:50:36.149Z,1.83
2022-12-29T23:52:45.167Z,1.90
2022-12-29T23:54:54.542Z,1.43
2022-12-29T23:57:03.543Z,1.57
2022-12-29T23:59:12.367Z,1.60
